Aérodrome :
LOGIN :

S'inscrire | Disclaimer

   EN    FR    IT 

 










Légende :    VFR   VFR Marginal   IFR   IFR Intensif   IFR Très Intensif
Visi : 
Plafond : 
>= 8 km
>= 3000ft
5 à 8 km
1000 à 3000 ft
1500m à 5 km
500 à 1000 ft
800 à 1500m
200 à 500 ft
< 800m
< 200 ft
Symboles :   Orages  Brouillard  Fortes neiges  Fortes précipitations  Vent > 20 kt
SIGMETs :   Divers  Orages  Givrage  Turbulence  Onde Orograph.  Cendres Volcan.






- Altitude de l'aérodrome : 122 ft
- Code IATA : TXL


EDDT - Berlin Tegel Int.

DERNIER METAR :
  • 301950Z 30004KT 9999 BKN005 01/00 Q1026 TEMPO SCT007

METARs EXPIRÉS :
  • 301920Z 29003KT 250V320 9999 BKN007 01/00 Q1025 TEMPO SCT007
  • 301850Z 26004KT 9999 -SN FEW013 BKN045 01/00 Q1025 TEMPO BKN013
  • 301820Z 28004KT 9999 -SN SCT013 BKN020 02/00 Q1025 TEMPO BKN013
  • 301750Z 29003KT 260V320 9999 FEW013 BKN017 02/M00 Q1025 TEMPO BKN013
  • 301720Z 28006KT 9999 SCT013 BKN018 02/M00 Q1024 TEMPO BKN013

TAF TAF EDDT
Valide du 30 à 18h jusqu'au 31 à 18h UTC


301700Z 3018/3118 28004KT 9999 BKN010
BECMG 3018/3020 02006KT FEW035
PROB30
TEMPO 3018/3022 2500 -SHSN BKN009TCU
BECMG 3106/3108 32007KT



MET'MAP, la Météo Aéronautique d'un coup d'oeil ! - Copyright ORBIFLY Décembre 2007 - Disclaimer

ORBIFLY MET'MAP TEAM :

Programmation & Développement : Alexandra Zaïnal
Sur une idée originale de : Baudouin d'Aumeries
Assistance à la programmation : Marc-Olivier Méhu
Soutien technique & logistique : Manuel Goepfert

Contact : metmap@orbifly.com




SOURCES & CREDITS :

   NOAA